sensor_id;sensor_type;location;lat;lon;timestamp;P1;durP1;ratioP1;P2;durP2;ratioP2
37655;SDS011;23498;50.958;3.124;2024-02-14T00:02:13;8.63;;;5.93;;
37655;SDS011;23498;50.958;3.124;2024-02-14T00:04:39;7.90;;;5.43;;
37655;SDS011;23498;50.958;3.124;2024-02-14T00:07:05;8.18;;;6.00;;
37655;SDS011;23498;50.958;3.124;2024-02-14T00:09:31;9.93;;;6.25;;
37655;SDS011;23498;50.958;3.124;2024-02-14T00:11:57;7.60;;;5.50;;
37655;SDS011;23498;50.958;3.124;2024-02-14T00:14:23;7.28;;;5.57;;
37655;SDS011;23498;50.958;3.124;2024-02-14T00:16:49;8.00;;;5.55;;
37655;SDS011;23498;50.958;3.124;2024-02-14T00:19:16;8.43;;;5.90;;
37655;SDS011;23498;50.958;3.124;2024-02-14T00:21:42;9.80;;;6.05;;
37655;SDS011;23498;50.958;3.124;2024-02-14T00:24:08;9.85;;;6.05;;
37655;SDS011;23498;50.958;3.124;2024-02-14T00:26:34;10.10;;;6.28;;
37655;SDS011;23498;50.958;3.124;2024-02-14T00:29:00;8.85;;;5.95;;
37655;SDS011;23498;50.958;3.124;2024-02-14T00:31:27;8.18;;;6.00;;
37655;SDS011;23498;50.958;3.124;2024-02-14T00:33:53;8.57;;;5.70;;
37655;SDS011;23498;50.958;3.124;2024-02-14T00:36:19;7.43;;;5.32;;
37655;SDS011;23498;50.958;3.124;2024-02-14T00:38:45;9.52;;;5.60;;
37655;SDS011;23498;50.958;3.124;2024-02-14T00:41:11;8.55;;;5.97;;
37655;SDS011;23498;50.958;3.124;2024-02-14T00:43:37;8.13;;;5.68;;
37655;SDS011;23498;50.958;3.124;2024-02-14T00:46:03;6.63;;;5.07;;
37655;SDS011;23498;50.958;3.124;2024-02-14T00:48:30;10.68;;;5.55;;
37655;SDS011;23498;50.958;3.124;2024-02-14T00:50:57;7.60;;;5.63;;
37655;SDS011;23498;50.958;3.124;2024-02-14T00:53:24;7.78;;;5.70;;
37655;SDS011;23498;50.958;3.124;2024-02-14T00:55:50;7.45;;;6.07;;
37655;SDS011;23498;50.958;3.124;2024-02-14T00:58:16;8.32;;;5.20;;
37655;SDS011;23498;50.958;3.124;2024-02-14T01:00:42;9.20;;;5.47;;
37655;SDS011;23498;50.958;3.124;2024-02-14T01:03:08;7.88;;;5.55;;
37655;SDS011;23498;50.958;3.124;2024-02-14T01:05:37;9.38;;;5.70;;
37655;SDS011;23498;50.958;3.124;2024-02-14T01:08:04;10.05;;;5.95;;
37655;SDS011;23498;50.958;3.124;2024-02-14T01:10:30;8.77;;;5.45;;
37655;SDS011;23498;50.958;3.124;2024-02-14T01:12:56;9.40;;;5.57;;
37655;SDS011;23498;50.958;3.124;2024-02-14T01:15:22;9.30;;;5.57;;
37655;SDS011;23498;50.958;3.124;2024-02-14T01:17:48;9.15;;;5.60;;
37655;SDS011;23498;50.958;3.124;2024-02-14T01:20:15;9.75;;;5.30;;
37655;SDS011;23498;50.958;3.124;2024-02-14T01:22:41;10.55;;;4.90;;
37655;SDS011;23498;50.958;3.124;2024-02-14T01:25:07;11.20;;;5.65;;
37655;SDS011;23498;50.958;3.124;2024-02-14T01:27:35;9.07;;;5.40;;
37655;SDS011;23498;50.958;3.124;2024-02-14T01:30:01;10.02;;;5.75;;
37655;SDS011;23498;50.958;3.124;2024-02-14T01:32:29;9.68;;;5.70;;
37655;SDS011;23498;50.958;3.124;2024-02-14T01:34:55;10.27;;;6.45;;
37655;SDS011;23498;50.958;3.124;2024-02-14T01:37:21;9.85;;;5.95;;
37655;SDS011;23498;50.958;3.124;2024-02-14T01:39:47;7.80;;;5.53;;
37655;SDS011;23498;50.958;3.124;2024-02-14T01:42:13;8.65;;;5.55;;
37655;SDS011;23498;50.958;3.124;2024-02-14T01:44:40;7.88;;;5.32;;
37655;SDS011;23498;50.958;3.124;2024-02-14T01:47:08;8.80;;;5.45;;
37655;SDS011;23498;50.958;3.124;2024-02-14T01:49:35;9.95;;;5.78;;
37655;SDS011;23498;50.958;3.124;2024-02-14T01:52:02;10.20;;;5.75;;
37655;SDS011;23498;50.958;3.124;2024-02-14T01:54:29;8.82;;;5.72;;
37655;SDS011;23498;50.958;3.124;2024-02-14T01:56:55;9.30;;;5.90;;
37655;SDS011;23498;50.958;3.124;2024-02-14T01:59:22;8.43;;;5.55;;
37655;SDS011;23498;50.958;3.124;2024-02-14T02:01:49;8.38;;;5.65;;
37655;SDS011;23498;50.958;3.124;2024-02-14T02:04:17;8.00;;;5.82;;
37655;SDS011;23498;50.958;3.124;2024-02-14T02:06:43;9.38;;;5.80;;
37655;SDS011;23498;50.958;3.124;2024-02-14T02:09:09;9.05;;;6.20;;
37655;SDS011;23498;50.958;3.124;2024-02-14T02:11:46;9.05;;;5.88;;
37655;SDS011;23498;50.958;3.124;2024-02-14T02:14:13;9.65;;;5.85;;
37655;SDS011;23498;50.958;3.124;2024-02-14T02:16:40;8.15;;;5.65;;
37655;SDS011;23498;50.958;3.124;2024-02-14T02:19:06;9.63;;;6.05;;
37655;SDS011;23498;50.958;3.124;2024-02-14T02:21:34;8.95;;;6.00;;
37655;SDS011;23498;50.958;3.124;2024-02-14T02:24:01;8.68;;;5.80;;
37655;SDS011;23498;50.958;3.124;2024-02-14T02:26:27;8.35;;;5.18;;
37655;SDS011;23498;50.958;3.124;2024-02-14T02:28:53;9.27;;;5.68;;
37655;SDS011;23498;50.958;3.124;2024-02-14T02:31:19;9.90;;;6.00;;
37655;SDS011;23498;50.958;3.124;2024-02-14T02:33:45;8.82;;;5.95;;
37655;SDS011;23498;50.958;3.124;2024-02-14T02:36:12;11.20;;;5.72;;
37655;SDS011;23498;50.958;3.124;2024-02-14T02:38:38;8.80;;;5.50;;
37655;SDS011;23498;50.958;3.124;2024-02-14T02:41:04;7.82;;;5.50;;
37655;SDS011;23498;50.958;3.124;2024-02-14T02:43:34;8.88;;;5.93;;
37655;SDS011;23498;50.958;3.124;2024-02-14T02:46:00;11.23;;;5.63;;
37655;SDS011;23498;50.958;3.124;2024-02-14T02:48:26;7.55;;;5.60;;
37655;SDS011;23498;50.958;3.124;2024-02-14T02:50:52;8.57;;;5.90;;
37655;SDS011;23498;50.958;3.124;2024-02-14T02:53:19;8.85;;;5.43;;
37655;SDS011;23498;50.958;3.124;2024-02-14T02:55:45;8.35;;;5.88;;
37655;SDS011;23498;50.958;3.124;2024-02-14T02:58:12;9.10;;;5.68;;
37655;SDS011;23498;50.958;3.124;2024-02-14T03:00:38;7.70;;;5.47;;
37655;SDS011;23498;50.958;3.124;2024-02-14T03:03:07;10.32;;;5.70;;
37655;SDS011;23498;50.958;3.124;2024-02-14T03:05:33;8.30;;;5.35;;
37655;SDS011;23498;50.958;3.124;2024-02-14T03:07:59;10.95;;;5.38;;
37655;SDS011;23498;50.958;3.124;2024-02-14T03:10:26;8.80;;;5.68;;
37655;SDS011;23498;50.958;3.124;2024-02-14T03:12:52;9.55;;;6.15;;
37655;SDS011;23498;50.958;3.124;2024-02-14T03:15:18;8.30;;;6.32;;
37655;SDS011;23498;50.958;3.124;2024-02-14T03:17:45;11.38;;;6.53;;
37655;SDS011;23498;50.958;3.124;2024-02-14T03:20:11;11.68;;;6.47;;
37655;SDS011;23498;50.958;3.124;2024-02-14T03:22:38;10.05;;;6.18;;
37655;SDS011;23498;50.958;3.124;2024-02-14T03:25:09;8.95;;;5.97;;
37655;SDS011;23498;50.958;3.124;2024-02-14T03:27:36;9.55;;;6.15;;
37655;SDS011;23498;50.958;3.124;2024-02-14T03:30:02;8.90;;;5.68;;
37655;SDS011;23498;50.958;3.124;2024-02-14T03:32:29;9.30;;;5.93;;
37655;SDS011;23498;50.958;3.124;2024-02-14T03:34:55;10.20;;;6.15;;
37655;SDS011;23498;50.958;3.124;2024-02-14T03:37:21;13.05;;;6.28;;
37655;SDS011;23498;50.958;3.124;2024-02-14T03:39:47;11.88;;;6.30;;
37655;SDS011;23498;50.958;3.124;2024-02-14T03:42:13;9.43;;;6.05;;
37655;SDS011;23498;50.958;3.124;2024-02-14T03:44:40;12.98;;;6.70;;
37655;SDS011;23498;50.958;3.124;2024-02-14T03:47:06;12.60;;;6.07;;
37655;SDS011;23498;50.958;3.124;2024-02-14T03:49:32;12.00;;;6.90;;
37655;SDS011;23498;50.958;3.124;2024-02-14T03:51:59;11.10;;;5.65;;
37655;SDS011;23498;50.958;3.124;2024-02-14T03:54:26;9.40;;;5.80;;
37655;SDS011;23498;50.958;3.124;2024-02-14T03:56:53;13.43;;;5.97;;
37655;SDS011;23498;50.958;3.124;2024-02-14T03:59:20;9.23;;;5.93;;
37655;SDS011;23498;50.958;3.124;2024-02-14T04:01:49;8.93;;;5.72;;
37655;SDS011;23498;50.958;3.124;2024-02-14T04:04:18;9.43;;;5.65;;
37655;SDS011;23498;50.958;3.124;2024-02-14T04:06:44;9.70;;;5.75;;
37655;SDS011;23498;50.958;3.124;2024-02-14T04:09:11;10.63;;;6.15;;
37655;SDS011;23498;50.958;3.124;2024-02-14T04:11:37;11.93;;;5.95;;
37655;SDS011;23498;50.958;3.124;2024-02-14T04:14:03;11.32;;;6.18;;
37655;SDS011;23498;50.958;3.124;2024-02-14T04:16:29;8.55;;;4.97;;
37655;SDS011;23498;50.958;3.124;2024-02-14T04:18:55;12.60;;;6.47;;
37655;SDS011;23498;50.958;3.124;2024-02-14T04:21:21;9.85;;;6.03;;
37655;SDS011;23498;50.958;3.124;2024-02-14T04:23:47;12.25;;;6.13;;
37655;SDS011;23498;50.958;3.124;2024-02-14T04:26:22;10.23;;;5.60;;
37655;SDS011;23498;50.958;3.124;2024-02-14T04:28:49;8.80;;;5.40;;
37655;SDS011;23498;50.958;3.124;2024-02-14T04:31:15;10.68;;;5.60;;
37655;SDS011;23498;50.958;3.124;2024-02-14T04:33:41;10.15;;;5.63;;
37655;SDS011;23498;50.958;3.124;2024-02-14T04:36:08;9.32;;;5.70;;
37655;SDS011;23498;50.958;3.124;2024-02-14T04:38:34;9.98;;;5.88;;
37655;SDS011;23498;50.958;3.124;2024-02-14T04:41:00;10.40;;;5.50;;
37655;SDS011;23498;50.958;3.124;2024-02-14T04:43:26;11.32;;;5.68;;
37655;SDS011;23498;50.958;3.124;2024-02-14T04:45:52;10.25;;;5.90;;
37655;SDS011;23498;50.958;3.124;2024-02-14T04:48:19;11.30;;;6.40;;
37655;SDS011;23498;50.958;3.124;2024-02-14T04:50:45;9.93;;;6.10;;
37655;SDS011;23498;50.958;3.124;2024-02-14T04:53:11;11.43;;;5.80;;
37655;SDS011;23498;50.958;3.124;2024-02-14T04:55:37;12.00;;;5.80;;
37655;SDS011;23498;50.958;3.124;2024-02-14T04:58:03;9.43;;;5.25;;
37655;SDS011;23498;50.958;3.124;2024-02-14T05:00:30;10.23;;;5.28;;
37655;SDS011;23498;50.958;3.124;2024-02-14T05:02:56;10.88;;;5.18;;
37655;SDS011;23498;50.958;3.124;2024-02-14T05:05:22;9.13;;;5.20;;
37655;SDS011;23498;50.958;3.124;2024-02-14T05:07:48;10.80;;;5.30;;
37655;SDS011;23498;50.958;3.124;2024-02-14T05:10:15;8.77;;;5.15;;
37655;SDS011;23498;50.958;3.124;2024-02-14T05:12:41;9.77;;;4.68;;
37655;SDS011;23498;50.958;3.124;2024-02-14T05:15:07;11.77;;;5.25;;
37655;SDS011;23498;50.958;3.124;2024-02-14T05:17:34;8.15;;;4.78;;
37655;SDS011;23498;50.958;3.124;2024-02-14T05:20:00;11.55;;;5.45;;
37655;SDS011;23498;50.958;3.124;2024-02-14T05:22:26;11.48;;;4.65;;
37655;SDS011;23498;50.958;3.124;2024-02-14T05:24:52;9.63;;;5.07;;
37655;SDS011;23498;50.958;3.124;2024-02-14T05:27:18;10.07;;;4.90;;
37655;SDS011;23498;50.958;3.124;2024-02-14T05:29:45;10.38;;;4.75;;
37655;SDS011;23498;50.958;3.124;2024-02-14T05:32:11;10.60;;;4.88;;
37655;SDS011;23498;50.958;3.124;2024-02-14T05:34:37;9.13;;;4.93;;
37655;SDS011;23498;50.958;3.124;2024-02-14T05:37:03;9.35;;;5.22;;
37655;SDS011;23498;50.958;3.124;2024-02-14T05:39:30;12.65;;;5.28;;
37655;SDS011;23498;50.958;3.124;2024-02-14T05:41:56;9.35;;;4.70;;
37655;SDS011;23498;50.958;3.124;2024-02-14T05:44:22;18.50;;;7.95;;
37655;SDS011;23498;50.958;3.124;2024-02-14T05:46:48;11.00;;;5.13;;
37655;SDS011;23498;50.958;3.124;2024-02-14T05:49:14;10.05;;;4.90;;
37655;SDS011;23498;50.958;3.124;2024-02-14T05:51:40;8.77;;;5.15;;
37655;SDS011;23498;50.958;3.124;2024-02-14T05:54:06;9.43;;;5.05;;
37655;SDS011;23498;50.958;3.124;2024-02-14T05:56:32;9.93;;;5.38;;
37655;SDS011;23498;50.958;3.124;2024-02-14T05:58:58;11.00;;;5.75;;
37655;SDS011;23498;50.958;3.124;2024-02-14T06:01:24;12.02;;;5.22;;
37655;SDS011;23498;50.958;3.124;2024-02-14T06:03:50;10.40;;;5.20;;
37655;SDS011;23498;50.958;3.124;2024-02-14T06:06:16;11.65;;;5.80;;
37655;SDS011;23498;50.958;3.124;2024-02-14T06:08:42;9.35;;;4.95;;
37655;SDS011;23498;50.958;3.124;2024-02-14T06:11:09;13.43;;;5.22;;
37655;SDS011;23498;50.958;3.124;2024-02-14T06:13:37;9.32;;;5.03;;
37655;SDS011;23498;50.958;3.124;2024-02-14T06:16:03;10.65;;;5.15;;
37655;SDS011;23498;50.958;3.124;2024-02-14T06:18:30;8.50;;;4.80;;
37655;SDS011;23498;50.958;3.124;2024-02-14T06:20:56;9.90;;;5.25;;
37655;SDS011;23498;50.958;3.124;2024-02-14T06:23:22;9.20;;;5.28;;
37655;SDS011;23498;50.958;3.124;2024-02-14T06:25:48;9.07;;;4.95;;
37655;SDS011;23498;50.958;3.124;2024-02-14T06:28:14;10.43;;;4.43;;
37655;SDS011;23498;50.958;3.124;2024-02-14T06:30:40;8.50;;;4.80;;
37655;SDS011;23498;50.958;3.124;2024-02-14T06:33:06;9.57;;;5.20;;
37655;SDS011;23498;50.958;3.124;2024-02-14T06:35:32;11.73;;;5.82;;
37655;SDS011;23498;50.958;3.124;2024-02-14T06:37:58;12.45;;;5.50;;
37655;SDS011;23498;50.958;3.124;2024-02-14T06:40:25;8.85;;;5.25;;
37655;SDS011;23498;50.958;3.124;2024-02-14T06:42:52;10.88;;;5.80;;
37655;SDS011;23498;50.958;3.124;2024-02-14T06:45:19;8.90;;;5.22;;
37655;SDS011;23498;50.958;3.124;2024-02-14T06:47:45;10.52;;;5.55;;
37655;SDS011;23498;50.958;3.124;2024-02-14T06:50:11;10.38;;;5.50;;
37655;SDS011;23498;50.958;3.124;2024-02-14T06:52:37;10.95;;;6.07;;
37655;SDS011;23498;50.958;3.124;2024-02-14T06:55:04;8.80;;;5.68;;
37655;SDS011;23498;50.958;3.124;2024-02-14T06:57:30;13.10;;;6.30;;
37655;SDS011;23498;50.958;3.124;2024-02-14T06:59:56;13.30;;;6.13;;
37655;SDS011;23498;50.958;3.124;2024-02-14T07:02:22;13.57;;;6.60;;
37655;SDS011;23498;50.958;3.124;2024-02-14T07:04:48;13.70;;;6.60;;
37655;SDS011;23498;50.958;3.124;2024-02-14T07:07:14;12.32;;;6.50;;
37655;SDS011;23498;50.958;3.124;2024-02-14T07:09:40;13.90;;;6.78;;
37655;SDS011;23498;50.958;3.124;2024-02-14T07:12:06;13.20;;;6.25;;
37655;SDS011;23498;50.958;3.124;2024-02-14T07:14:32;11.15;;;6.63;;
37655;SDS011;23498;50.958;3.124;2024-02-14T07:16:58;11.85;;;6.38;;
37655;SDS011;23498;50.958;3.124;2024-02-14T07:19:24;14.02;;;6.70;;
37655;SDS011;23498;50.958;3.124;2024-02-14T07:21:50;11.00;;;6.60;;
37655;SDS011;23498;50.958;3.124;2024-02-14T07:24:16;12.32;;;6.60;;
37655;SDS011;23498;50.958;3.124;2024-02-14T07:26:43;12.75;;;6.82;;
37655;SDS011;23498;50.958;3.124;2024-02-14T07:29:09;18.80;;;7.47;;
37655;SDS011;23498;50.958;3.124;2024-02-14T07:31:35;9.90;;;7.30;;
37655;SDS011;23498;50.958;3.124;2024-02-14T07:34:01;12.90;;;6.82;;
37655;SDS011;23498;50.958;3.124;2024-02-14T07:36:31;15.10;;;7.75;;
37655;SDS011;23498;50.958;3.124;2024-02-14T07:38:57;15.63;;;8.05;;
37655;SDS011;23498;50.958;3.124;2024-02-14T07:41:23;13.20;;;7.97;;
37655;SDS011;23498;50.958;3.124;2024-02-14T07:43:49;11.65;;;7.05;;
37655;SDS011;23498;50.958;3.124;2024-02-14T07:46:18;12.27;;;7.57;;
37655;SDS011;23498;50.958;3.124;2024-02-14T07:48:45;12.88;;;7.53;;
37655;SDS011;23498;50.958;3.124;2024-02-14T07:51:11;15.07;;;7.93;;
37655;SDS011;23498;50.958;3.124;2024-02-14T07:53:37;15.15;;;8.02;;
37655;SDS011;23498;50.958;3.124;2024-02-14T07:56:03;13.48;;;7.03;;
37655;SDS011;23498;50.958;3.124;2024-02-14T07:58:30;15.57;;;7.65;;
37655;SDS011;23498;50.958;3.124;2024-02-14T08:00:55;11.85;;;7.80;;
37655;SDS011;23498;50.958;3.124;2024-02-14T08:03:21;13.02;;;7.57;;
37655;SDS011;23498;50.958;3.124;2024-02-14T08:05:49;13.82;;;8.57;;
37655;SDS011;23498;50.958;3.124;2024-02-14T08:08:16;16.52;;;8.20;;
37655;SDS011;23498;50.958;3.124;2024-02-14T08:10:42;11.13;;;7.72;;
37655;SDS011;23498;50.958;3.124;2024-02-14T08:13:08;17.98;;;8.38;;
37655;SDS011;23498;50.958;3.124;2024-02-14T08:15:35;16.15;;;8.38;;
37655;SDS011;23498;50.958;3.124;2024-02-14T08:18:01;12.95;;;7.75;;
37655;SDS011;23498;50.958;3.124;2024-02-14T08:20:27;16.00;;;8.30;;
37655;SDS011;23498;50.958;3.124;2024-02-14T08:22:53;14.40;;;8.00;;
37655;SDS011;23498;50.958;3.124;2024-02-14T08:25:19;16.13;;;7.80;;
37655;SDS011;23498;50.958;3.124;2024-02-14T08:27:45;14.25;;;8.15;;
37655;SDS011;23498;50.958;3.124;2024-02-14T08:30:12;14.57;;;7.57;;
37655;SDS011;23498;50.958;3.124;2024-02-14T08:32:38;13.68;;;7.03;;
37655;SDS011;23498;50.958;3.124;2024-02-14T08:35:04;12.50;;;7.47;;
37655;SDS011;23498;50.958;3.124;2024-02-14T08:37:32;14.82;;;7.50;;
37655;SDS011;23498;50.958;3.124;2024-02-14T08:40:01;13.38;;;8.38;;
37655;SDS011;23498;50.958;3.124;2024-02-14T08:42:30;15.05;;;7.70;;
37655;SDS011;23498;50.958;3.124;2024-02-14T08:44:56;14.23;;;7.22;;
37655;SDS011;23498;50.958;3.124;2024-02-14T08:47:22;14.02;;;7.53;;
37655;SDS011;23498;50.958;3.124;2024-02-14T08:49:49;12.80;;;7.07;;
37655;SDS011;23498;50.958;3.124;2024-02-14T08:52:14;14.35;;;7.88;;
37655;SDS011;23498;50.958;3.124;2024-02-14T08:54:40;14.45;;;7.78;;
37655;SDS011;23498;50.958;3.124;2024-02-14T08:57:06;11.80;;;7.03;;
37655;SDS011;23498;50.958;3.124;2024-02-14T08:59:32;14.15;;;7.82;;
37655;SDS011;23498;50.958;3.124;2024-02-14T09:01:59;11.73;;;7.53;;
37655;SDS011;23498;50.958;3.124;2024-02-14T09:04:24;14.73;;;7.53;;
37655;SDS011;23498;50.958;3.124;2024-02-14T09:06:52;12.98;;;8.40;;
37655;SDS011;23498;50.958;3.124;2024-02-14T09:09:18;12.77;;;7.57;;
37655;SDS011;23498;50.958;3.124;2024-02-14T09:11:44;11.38;;;7.97;;
37655;SDS011;23498;50.958;3.124;2024-02-14T09:14:13;11.55;;;7.85;;
37655;SDS011;23498;50.958;3.124;2024-02-14T09:16:39;12.32;;;7.72;;
37655;SDS011;23498;50.958;3.124;2024-02-14T09:19:05;12.82;;;7.78;;
37655;SDS011;23498;50.958;3.124;2024-02-14T09:21:35;12.30;;;7.57;;
37655;SDS011;23498;50.958;3.124;2024-02-14T09:24:02;12.73;;;7.55;;
37655;SDS011;23498;50.958;3.124;2024-02-14T09:26:28;11.25;;;7.43;;
37655;SDS011;23498;50.958;3.124;2024-02-14T09:28:54;14.30;;;7.82;;
37655;SDS011;23498;50.958;3.124;2024-02-14T09:31:20;12.35;;;7.95;;
37655;SDS011;23498;50.958;3.124;2024-02-14T09:33:47;12.68;;;7.38;;
37655;SDS011;23498;50.958;3.124;2024-02-14T09:36:14;12.10;;;7.75;;
37655;SDS011;23498;50.958;3.124;2024-02-14T09:38:40;14.15;;;7.47;;
37655;SDS011;23498;50.958;3.124;2024-02-14T09:41:18;10.52;;;6.85;;
37655;SDS011;23498;50.958;3.124;2024-02-14T09:43:47;11.68;;;7.15;;
37655;SDS011;23498;50.958;3.124;2024-02-14T09:46:13;10.35;;;7.40;;
37655;SDS011;23498;50.958;3.124;2024-02-14T09:48:40;10.18;;;7.07;;
37655;SDS011;23498;50.958;3.124;2024-02-14T09:51:07;10.35;;;6.60;;
37655;SDS011;23498;50.958;3.124;2024-02-14T09:53:33;8.85;;;7.07;;
37655;SDS011;23498;50.958;3.124;2024-02-14T09:56:00;10.90;;;7.13;;
37655;SDS011;23498;50.958;3.124;2024-02-14T09:58:27;10.13;;;6.75;;
37655;SDS011;23498;50.958;3.124;2024-02-14T10:00:54;9.18;;;6.55;;
37655;SDS011;23498;50.958;3.124;2024-02-14T10:03:20;9.57;;;6.30;;
37655;SDS011;23498;50.958;3.124;2024-02-14T10:05:46;8.70;;;6.00;;
37655;SDS011;23498;50.958;3.124;2024-02-14T10:08:13;9.13;;;6.07;;
37655;SDS011;23498;50.958;3.124;2024-02-14T10:10:39;9.43;;;5.82;;
37655;SDS011;23498;50.958;3.124;2024-02-14T10:13:06;8.30;;;5.80;;
37655;SDS011;23498;50.958;3.124;2024-02-14T10:15:32;9.98;;;6.18;;
37655;SDS011;23498;50.958;3.124;2024-02-14T10:17:59;9.05;;;6.18;;
37655;SDS011;23498;50.958;3.124;2024-02-14T10:20:25;10.48;;;6.15;;
37655;SDS011;23498;50.958;3.124;2024-02-14T10:22:52;9.27;;;6.22;;
37655;SDS011;23498;50.958;3.124;2024-02-14T10:25:18;8.77;;;6.03;;
37655;SDS011;23498;50.958;3.124;2024-02-14T10:27:44;9.30;;;6.45;;
37655;SDS011;23498;50.958;3.124;2024-02-14T10:30:12;10.43;;;6.50;;
37655;SDS011;23498;50.958;3.124;2024-02-14T10:32:39;8.10;;;6.07;;
37655;SDS011;23498;50.958;3.124;2024-02-14T10:35:08;8.35;;;6.38;;
37655;SDS011;23498;50.958;3.124;2024-02-14T10:37:37;8.20;;;5.68;;
37655;SDS011;23498;50.958;3.124;2024-02-14T10:40:03;8.52;;;5.90;;
37655;SDS011;23498;50.958;3.124;2024-02-14T10:42:32;8.18;;;5.75;;
37655;SDS011;23498;50.958;3.124;2024-02-14T10:45:02;11.02;;;6.03;;
37655;SDS011;23498;50.958;3.124;2024-02-14T10:47:34;10.93;;;5.88;;
37655;SDS011;23498;50.958;3.124;2024-02-14T10:50:01;8.07;;;5.63;;
37655;SDS011;23498;50.958;3.124;2024-02-14T10:52:31;8.90;;;6.05;;
37655;SDS011;23498;50.958;3.124;2024-02-14T10:55:04;8.32;;;6.10;;
37655;SDS011;23498;50.958;3.124;2024-02-14T10:57:31;9.85;;;5.88;;
37655;SDS011;23498;50.958;3.124;2024-02-14T11:00:05;9.85;;;6.10;;
37655;SDS011;23498;50.958;3.124;2024-02-14T11:02:32;11.27;;;6.90;;
37655;SDS011;23498;50.958;3.124;2024-02-14T11:04:58;12.15;;;6.47;;
37655;SDS011;23498;50.958;3.124;2024-02-14T11:07:27;9.68;;;5.97;;
37655;SDS011;23498;50.958;3.124;2024-02-14T11:10:06;12.20;;;5.93;;
37655;SDS011;23498;50.958;3.124;2024-02-14T11:12:36;9.10;;;6.28;;
37655;SDS011;23498;50.958;3.124;2024-02-14T11:15:17;12.93;;;5.68;;
37655;SDS011;23498;50.958;3.124;2024-02-14T11:17:43;10.13;;;6.00;;
37655;SDS011;23498;50.958;3.124;2024-02-14T11:25:30;8.25;;;5.32;;
37655;SDS011;23498;50.958;3.124;2024-02-14T11:28:00;11.07;;;4.93;;
37655;SDS011;23498;50.958;3.124;2024-02-14T11:30:30;9.07;;;5.10;;
37655;SDS011;23498;50.958;3.124;2024-02-14T11:33:15;9.77;;;5.65;;
37655;SDS011;23498;50.958;3.124;2024-02-14T11:35:44;9.35;;;5.20;;
37655;SDS011;23498;50.958;3.124;2024-02-14T11:38:10;9.60;;;5.95;;
37655;SDS011;23498;50.958;3.124;2024-02-14T11:40:36;10.27;;;4.95;;
37655;SDS011;23498;50.958;3.124;2024-02-14T11:43:18;9.57;;;5.22;;
37655;SDS011;23498;50.958;3.124;2024-02-14T11:45:48;8.75;;;5.38;;
37655;SDS011;23498;50.958;3.124;2024-02-14T11:48:20;7.45;;;4.97;;
37655;SDS011;23498;50.958;3.124;2024-02-14T11:50:46;10.85;;;5.18;;
37655;SDS011;23498;50.958;3.124;2024-02-14T11:53:13;8.68;;;4.93;;
37655;SDS011;23498;50.958;3.124;2024-02-14T11:55:42;7.35;;;4.80;;
37655;SDS011;23498;50.958;3.124;2024-02-14T11:58:11;7.05;;;4.68;;
37655;SDS011;23498;50.958;3.124;2024-02-14T12:00:38;9.23;;;5.35;;
37655;SDS011;23498;50.958;3.124;2024-02-14T12:03:29;9.18;;;4.57;;
37655;SDS011;23498;50.958;3.124;2024-02-14T12:05:54;8.55;;;4.35;;
37655;SDS011;23498;50.958;3.124;2024-02-14T12:08:22;7.65;;;4.10;;
37655;SDS011;23498;50.958;3.124;2024-02-14T12:11:13;8.18;;;4.13;;
37655;SDS011;23498;50.958;3.124;2024-02-14T12:13:42;9.70;;;4.60;;
37655;SDS011;23498;50.958;3.124;2024-02-14T12:16:10;11.65;;;4.50;;
37655;SDS011;23498;50.958;3.124;2024-02-14T12:18:36;7.80;;;4.80;;
37655;SDS011;23498;50.958;3.124;2024-02-14T12:21:05;7.50;;;4.10;;
37655;SDS011;23498;50.958;3.124;2024-02-14T12:23:34;8.98;;;4.00;;
37655;SDS011;23498;50.958;3.124;2024-02-14T12:26:04;9.98;;;4.13;;
37655;SDS011;23498;50.958;3.124;2024-02-14T12:28:30;10.10;;;3.92;;
37655;SDS011;23498;50.958;3.124;2024-02-14T12:30:57;6.43;;;4.10;;
37655;SDS011;23498;50.958;3.124;2024-02-14T12:33:26;7.72;;;4.03;;
37655;SDS011;23498;50.958;3.124;2024-02-14T12:35:54;9.55;;;4.10;;
37655;SDS011;23498;50.958;3.124;2024-02-14T12:38:22;13.23;;;4.05;;
37655;SDS011;23498;50.958;3.124;2024-02-14T12:40:48;9.63;;;4.05;;
37655;SDS011;23498;50.958;3.124;2024-02-14T12:43:15;8.73;;;3.80;;
37655;SDS011;23498;50.958;3.124;2024-02-14T12:45:41;9.90;;;5.90;;
37655;SDS011;23498;50.958;3.124;2024-02-14T12:48:08;13.27;;;7.47;;
37655;SDS011;23498;50.958;3.124;2024-02-14T12:50:35;9.73;;;6.30;;
37655;SDS011;23498;50.958;3.124;2024-02-14T12:53:03;10.10;;;5.85;;
37655;SDS011;23498;50.958;3.124;2024-02-14T12:55:29;10.02;;;4.72;;
37655;SDS011;23498;50.958;3.124;2024-02-14T12:57:55;8.85;;;4.45;;
37655;SDS011;23498;50.958;3.124;2024-02-14T13:00:22;6.65;;;4.30;;
37655;SDS011;23498;50.958;3.124;2024-02-14T13:02:48;8.75;;;4.43;;
37655;SDS011;23498;50.958;3.124;2024-02-14T13:05:14;7.20;;;4.15;;
37655;SDS011;23498;50.958;3.124;2024-02-14T13:07:41;7.97;;;4.05;;
37655;SDS011;23498;50.958;3.124;2024-02-14T13:10:07;8.10;;;3.60;;
37655;SDS011;23498;50.958;3.124;2024-02-14T13:12:34;5.53;;;3.13;;
37655;SDS011;23498;50.958;3.124;2024-02-14T13:15:00;6.72;;;3.40;;
37655;SDS011;23498;50.958;3.124;2024-02-14T13:17:27;7.43;;;3.28;;
37655;SDS011;23498;50.958;3.124;2024-02-14T13:19:54;7.82;;;3.33;;
37655;SDS011;23498;50.958;3.124;2024-02-14T13:22:20;8.65;;;3.47;;
37655;SDS011;23498;50.958;3.124;2024-02-14T13:24:46;5.68;;;3.10;;
37655;SDS011;23498;50.958;3.124;2024-02-14T13:27:12;6.80;;;3.35;;
37655;SDS011;23498;50.958;3.124;2024-02-14T13:29:39;6.10;;;3.15;;
37655;SDS011;23498;50.958;3.124;2024-02-14T13:32:05;7.78;;;3.67;;
37655;SDS011;23498;50.958;3.124;2024-02-14T13:34:32;6.35;;;3.10;;
37655;SDS011;23498;50.958;3.124;2024-02-14T13:36:58;7.70;;;3.40;;
37655;SDS011;23498;50.958;3.124;2024-02-14T13:39:25;5.55;;;3.22;;
37655;SDS011;23498;50.958;3.124;2024-02-14T13:41:51;9.05;;;3.53;;
37655;SDS011;23498;50.958;3.124;2024-02-14T13:44:17;6.93;;;3.50;;
37655;SDS011;23498;50.958;3.124;2024-02-14T13:46:44;7.53;;;4.13;;
37655;SDS011;23498;50.958;3.124;2024-02-14T13:49:15;8.38;;;3.80;;
37655;SDS011;23498;50.958;3.124;2024-02-14T13:51:46;7.93;;;4.05;;
37655;SDS011;23498;50.958;3.124;2024-02-14T13:54:12;9.50;;;3.83;;
37655;SDS011;23498;50.958;3.124;2024-02-14T13:56:39;10.70;;;4.07;;
37655;SDS011;23498;50.958;3.124;2024-02-14T13:59:05;9.27;;;4.10;;
37655;SDS011;23498;50.958;3.124;2024-02-14T14:01:31;10.18;;;4.07;;
37655;SDS011;23498;50.958;3.124;2024-02-14T14:03:57;8.35;;;4.30;;
37655;SDS011;23498;50.958;3.124;2024-02-14T14:06:23;7.13;;;4.28;;
37655;SDS011;23498;50.958;3.124;2024-02-14T14:08:50;9.63;;;4.13;;
37655;SDS011;23498;50.958;3.124;2024-02-14T14:11:16;9.43;;;4.60;;
37655;SDS011;23498;50.958;3.124;2024-02-14T14:13:42;9.07;;;4.85;;
37655;SDS011;23498;50.958;3.124;2024-02-14T14:16:08;8.98;;;4.47;;
37655;SDS011;23498;50.958;3.124;2024-02-14T14:18:36;8.10;;;4.25;;
37655;SDS011;23498;50.958;3.124;2024-02-14T14:21:02;9.93;;;4.28;;
37655;SDS011;23498;50.958;3.124;2024-02-14T14:23:28;9.88;;;4.15;;
37655;SDS011;23498;50.958;3.124;2024-02-14T14:25:54;11.30;;;4.32;;
37655;SDS011;23498;50.958;3.124;2024-02-14T14:28:20;9.20;;;4.28;;
37655;SDS011;23498;50.958;3.124;2024-02-14T14:30:56;10.57;;;4.93;;
37655;SDS011;23498;50.958;3.124;2024-02-14T14:33:22;9.48;;;4.10;;
37655;SDS011;23498;50.958;3.124;2024-02-14T14:35:50;10.50;;;4.22;;
37655;SDS011;23498;50.958;3.124;2024-02-14T14:38:18;8.88;;;3.30;;
37655;SDS011;23498;50.958;3.124;2024-02-14T14:40:44;7.15;;;3.67;;
37655;SDS011;23498;50.958;3.124;2024-02-14T14:43:11;9.43;;;3.58;;
37655;SDS011;23498;50.958;3.124;2024-02-14T14:45:37;6.95;;;3.60;;